createdAt,value
2023-04-15T00:00:47.765Z,0
2023-04-15T00:01:47.798Z,0
2023-04-15T00:02:47.842Z,0
2023-04-15T00:03:47.937Z,0
2023-04-15T00:04:47.974Z,0
2023-04-15T00:05:47.770Z,0
2023-04-15T00:06:47.769Z,0
2023-04-15T00:07:47.768Z,0
2023-04-15T00:08:47.773Z,0
2023-04-15T00:09:47.771Z,0
2023-04-15T00:10:47.791Z,0
2023-04-15T00:11:47.778Z,0
2023-04-15T00:12:47.774Z,0
2023-04-15T00:13:47.780Z,0
2023-04-15T00:14:47.775Z,0
2023-04-15T00:15:47.777Z,0
2023-04-15T00:16:47.798Z,0
2023-04-15T00:17:47.837Z,0
2023-04-15T00:18:47.787Z,0
2023-04-15T00:19:47.784Z,0
2023-04-15T00:20:47.824Z,0
2023-04-15T00:21:47.788Z,0
2023-04-15T00:22:47.790Z,0
2023-04-15T00:23:47.789Z,0
2023-04-15T00:24:47.785Z,0
2023-04-15T00:25:47.789Z,0
2023-04-15T00:26:47.790Z,0
2023-04-15T00:27:47.790Z,0
2023-04-15T00:28:47.793Z,0
2023-04-15T00:29:47.791Z,0
2023-04-15T00:30:47.832Z,0
2023-04-15T00:31:47.796Z,0
2023-04-15T00:32:47.811Z,0
2023-04-15T00:33:47.794Z,0
2023-04-15T00:34:47.794Z,0
2023-04-15T00:35:47.797Z,0
2023-04-15T00:36:47.820Z,0
2023-04-15T00:37:47.804Z,0
2023-04-15T00:38:47.796Z,0
2023-04-15T00:39:47.798Z,0
2023-04-15T00:40:47.802Z,0
2023-04-15T00:41:47.803Z,0
2023-04-15T00:42:47.806Z,0
2023-04-15T00:43:47.804Z,0
2023-04-15T00:44:47.809Z,0
2023-04-15T00:45:47.821Z,0
2023-04-15T00:46:47.806Z,0
2023-04-15T00:47:47.840Z,0
2023-04-15T00:48:47.817Z,0
2023-04-15T00:49:47.816Z,0
2023-04-15T00:50:47.812Z,0
2023-04-15T00:51:47.818Z,0
2023-04-15T00:52:47.839Z,0
2023-04-15T00:53:47.817Z,0
2023-04-15T00:54:47.818Z,0
2023-04-15T00:55:47.830Z,0
2023-04-15T00:56:47.816Z,0
2023-04-15T00:57:47.822Z,0
2023-04-15T00:58:47.815Z,0
2023-04-15T00:59:47.831Z,0
2023-04-15T01:00:47.820Z,0
2023-04-15T01:01:47.888Z,0
2023-04-15T01:02:47.909Z,0
2023-04-15T01:03:47.938Z,0
2023-04-15T01:04:47.832Z,0
2023-04-15T01:05:47.832Z,0
2023-04-15T01:06:47.831Z,0
2023-04-15T01:07:47.839Z,0
2023-04-15T01:08:47.860Z,0
2023-04-15T01:09:47.830Z,0
2023-04-15T01:10:47.824Z,0
2023-04-15T01:11:47.830Z,0
2023-04-15T01:12:47.831Z,0
2023-04-15T01:13:47.831Z,0
2023-04-15T01:14:47.831Z,0
2023-04-15T01:15:47.844Z,0
2023-04-15T01:16:47.838Z,0
2023-04-15T01:17:47.835Z,0
2023-04-15T01:18:47.833Z,0
2023-04-15T01:19:47.854Z,0
2023-04-15T01:20:47.840Z,0
2023-04-15T01:21:47.840Z,0
2023-04-15T01:22:47.837Z,0
2023-04-15T01:23:47.835Z,0
2023-04-15T01:24:47.863Z,0
2023-04-15T01:25:47.837Z,0
2023-04-15T01:26:47.839Z,0
2023-04-15T01:27:47.849Z,0
2023-04-15T01:28:47.839Z,0
2023-04-15T01:29:47.838Z,0
2023-04-15T01:30:47.842Z,0
2023-04-15T01:31:47.870Z,0
2023-04-15T01:32:47.851Z,0
2023-04-15T01:33:47.841Z,0
2023-04-15T01:34:47.840Z,0
2023-04-15T01:35:47.850Z,0
2023-04-15T01:36:47.853Z,0
2023-04-15T01:37:47.841Z,0
2023-04-15T01:38:47.845Z,0
2023-04-15T01:39:47.842Z,0
2023-04-15T01:40:47.865Z,0
2023-04-15T01:41:47.845Z,0
2023-04-15T01:42:47.840Z,0
2023-04-15T01:43:47.848Z,0
2023-04-15T01:44:47.848Z,0
2023-04-15T01:45:47.844Z,0
2023-04-15T01:46:47.912Z,0
2023-04-15T01:47:47.907Z,0
2023-04-15T01:48:47.847Z,0
2023-04-15T01:49:47.865Z,0
2023-04-15T01:50:47.856Z,0
2023-04-15T01:51:47.846Z,0
2023-04-15T01:52:47.848Z,0
2023-04-15T01:53:47.850Z,0
2023-04-15T01:54:47.848Z,0
2023-04-15T01:55:47.854Z,0
2023-04-15T01:56:47.886Z,0
2023-04-15T01:57:47.853Z,0
2023-04-15T01:58:47.849Z,0
2023-04-15T01:59:47.850Z,0
2023-04-15T02:00:47.882Z,0
2023-04-15T02:01:47.877Z,0
2023-04-15T02:02:47.884Z,0
2023-04-15T02:03:48.097Z,0
2023-04-15T02:04:47.856Z,0
2023-04-15T02:05:47.853Z,0
2023-04-15T02:06:47.853Z,0
2023-04-15T02:07:47.855Z,0
2023-04-15T02:08:47.856Z,0
2023-04-15T02:09:47.857Z,0
2023-04-15T02:10:47.861Z,0
2023-04-15T02:11:47.856Z,0
2023-04-15T02:12:47.880Z,0
2023-04-15T02:13:47.858Z,0
2023-04-15T02:14:47.861Z,0
2023-04-15T02:15:47.861Z,0
2023-04-15T02:16:47.902Z,0
2023-04-15T02:17:47.911Z,0
2023-04-15T02:18:47.872Z,0
2023-04-15T02:19:47.860Z,0
2023-04-15T02:20:47.862Z,0
2023-04-15T02:21:47.861Z,0
2023-04-15T02:22:47.868Z,0
2023-04-15T02:23:47.864Z,0
2023-04-15T02:24:47.871Z,0
2023-04-15T02:25:53.659Z,0
2023-04-15T02:26:47.870Z,0
2023-04-15T02:27:47.870Z,0
2023-04-15T02:28:47.893Z,0
2023-04-15T02:29:47.870Z,0
2023-04-15T02:30:47.873Z,0
2023-04-15T02:31:47.889Z,0
2023-04-15T02:32:47.890Z,0
2023-04-15T02:33:47.872Z,0
2023-04-15T02:34:47.885Z,0
2023-04-15T02:35:47.877Z,0
2023-04-15T02:36:47.876Z,0
2023-04-15T02:37:47.885Z,0
2023-04-15T02:38:47.881Z,0
2023-04-15T02:39:47.878Z,0
2023-04-15T02:40:47.886Z,0
2023-04-15T02:41:47.889Z,0
2023-04-15T02:42:47.885Z,0
2023-04-15T02:43:47.886Z,0
2023-04-15T02:44:47.917Z,0
2023-04-15T02:45:47.909Z,0
2023-04-15T02:46:47.890Z,0
2023-04-15T02:47:47.928Z,0
2023-04-15T02:48:47.890Z,0
2023-04-15T02:49:47.895Z,0
2023-04-15T02:50:47.945Z,0
2023-04-15T02:51:47.890Z,0
2023-04-15T02:52:47.894Z,0
2023-04-15T02:53:47.892Z,0
2023-04-15T02:54:47.890Z,0
2023-04-15T02:55:47.897Z,0
2023-04-15T02:56:47.890Z,0
2023-04-15T02:57:47.896Z,0
2023-04-15T02:58:47.893Z,0
2023-04-15T02:59:47.895Z,0
2023-04-15T03:00:47.926Z,0
2023-04-15T03:01:47.978Z,0
2023-04-15T03:02:48.019Z,0
2023-04-15T03:03:47.978Z,0
2023-04-15T03:04:47.901Z,0
2023-04-15T03:05:47.892Z,0
2023-04-15T03:06:47.901Z,0
2023-04-15T03:07:47.900Z,0
2023-04-15T03:08:47.898Z,0
2023-04-15T03:09:47.899Z,0
2023-04-15T03:10:47.904Z,0
2023-04-15T03:11:47.900Z,0
2023-04-15T03:12:47.911Z,0
2023-04-15T03:13:47.900Z,0
2023-04-15T03:14:47.902Z,0
2023-04-15T03:15:47.933Z,0
2023-04-15T03:16:47.934Z,0
2023-04-15T03:17:47.942Z,0
2023-04-15T03:18:47.924Z,0
2023-04-15T03:19:47.908Z,0
2023-04-15T03:20:47.910Z,0
2023-04-15T03:21:47.909Z,0
2023-04-15T03:22:47.914Z,0
2023-04-15T03:23:47.917Z,0
2023-04-15T03:24:47.916Z,0
2023-04-15T03:25:47.920Z,0
2023-04-15T03:26:47.919Z,0
2023-04-15T03:27:47.921Z,0
2023-04-15T03:28:47.918Z,0
2023-04-15T03:29:47.922Z,0
2023-04-15T03:30:48.169Z,0
2023-04-15T03:31:47.926Z,0
2023-04-15T03:32:47.991Z,0
2023-04-15T03:33:47.921Z,0
2023-04-15T03:34:47.924Z,0
2023-04-15T03:35:47.919Z,0
2023-04-15T03:36:47.926Z,0
2023-04-15T03:37:47.928Z,0
2023-04-15T03:38:47.929Z,0
2023-04-15T03:39:47.933Z,0
2023-04-15T03:40:47.946Z,0
2023-04-15T03:41:47.930Z,0
2023-04-15T03:42:47.957Z,0
2023-04-15T03:43:47.933Z,0
2023-04-15T03:44:47.936Z,0
2023-04-15T03:45:47.938Z,0
2023-04-15T03:46:48.043Z,0
2023-04-15T03:47:47.948Z,0
2023-04-15T03:48:47.967Z,0
2023-04-15T03:49:47.940Z,0
2023-04-15T03:50:47.937Z,0
2023-04-15T03:51:47.942Z,0
2023-04-15T03:52:49.155Z,0
2023-04-15T03:53:47.953Z,0
2023-04-15T03:54:47.944Z,0
2023-04-15T03:55:47.958Z,0
2023-04-15T03:56:47.951Z,0
2023-04-15T03:57:47.947Z,0
2023-04-15T03:58:47.944Z,0
2023-04-15T03:59:47.947Z,0
2023-04-15T04:00:47.949Z,0
2023-04-15T04:01:47.989Z,0
2023-04-15T04:02:48.096Z,0
2023-04-15T04:03:48.153Z,0
2023-04-15T04:04:48.156Z,0
2023-04-15T04:05:47.950Z,0
2023-04-15T04:06:47.954Z,0
2023-04-15T04:07:47.958Z,0
2023-04-15T04:08:47.953Z,0
2023-04-15T04:09:47.960Z,1
2023-04-15T04:10:47.954Z,1
2023-04-15T04:11:47.962Z,1
2023-04-15T04:12:47.960Z,1
2023-04-15T04:13:47.956Z,1
2023-04-15T04:14:47.960Z,2
2023-04-15T04:15:47.971Z,2
2023-04-15T04:16:48.007Z,2
2023-04-15T04:17:48.020Z,2
2023-04-15T04:18:47.960Z,2
2023-04-15T04:19:47.965Z,3
2023-04-15T04:20:47.993Z,3
2023-04-15T04:21:47.968Z,3
2023-04-15T04:22:47.969Z,3
2023-04-15T04:23:47.967Z,3
2023-04-15T04:24:47.967Z,5
2023-04-15T04:25:47.975Z,5
2023-04-15T04:26:47.971Z,5
2023-04-15T04:27:47.974Z,5
2023-04-15T04:28:47.976Z,5
2023-04-15T04:29:47.988Z,8
2023-04-15T04:30:47.979Z,8
2023-04-15T04:31:48.000Z,8
2023-04-15T04:32:48.002Z,8
2023-04-15T04:33:47.974Z,8
2023-04-15T04:34:47.978Z,10
2023-04-15T04:35:47.985Z,10
2023-04-15T04:36:48.033Z,10
2023-04-15T04:37:47.981Z,10
2023-04-15T04:38:47.988Z,10
2023-04-15T04:39:47.985Z,14
2023-04-15T04:40:47.983Z,14
2023-04-15T04:41:47.992Z,14
2023-04-15T04:42:48.009Z,14
2023-04-15T04:43:47.987Z,14
2023-04-15T04:44:47.991Z,18
2023-04-15T04:45:47.995Z,18
2023-04-15T04:46:47.993Z,18
2023-04-15T04:47:48.034Z,18
2023-04-15T04:48:47.984Z,18
2023-04-15T04:49:47.994Z,28
2023-04-15T04:50:48.002Z,28
2023-04-15T04:51:47.994Z,28
2023-04-15T04:52:48.071Z,28
2023-04-15T04:53:47.994Z,28
2023-04-15T04:54:47.994Z,40
2023-04-15T04:55:48.009Z,40
2023-04-15T04:56:47.993Z,40
2023-04-15T04:57:47.996Z,40
2023-04-15T04:58:47.999Z,40
2023-04-15T04:59:47.997Z,52
2023-04-15T05:00:48.009Z,52
2023-04-15T05:01:48.030Z,52
2023-04-15T05:02:48.221Z,52
2023-04-15T05:03:48.079Z,52
2023-04-15T05:04:48.017Z,65
2023-04-15T05:05:48.002Z,65
2023-04-15T05:06:48.008Z,65
2023-04-15T05:07:48.006Z,65
2023-04-15T05:08:48.034Z,65
2023-04-15T05:09:48.010Z,99
2023-04-15T05:10:48.003Z,99
2023-04-15T05:11:48.009Z,99
2023-04-15T05:12:48.010Z,99
2023-04-15T05:13:48.011Z,99
2023-04-15T05:14:48.012Z,146
2023-04-15T05:15:48.099Z,146
2023-04-15T05:16:48.018Z,146
2023-04-15T05:17:48.046Z,146
2023-04-15T05:18:48.016Z,146
2023-04-15T05:19:48.014Z,165
2023-04-15T05:20:48.030Z,165
2023-04-15T05:21:48.029Z,165
2023-04-15T05:22:48.053Z,165
2023-04-15T05:23:48.024Z,165
2023-04-15T05:24:48.045Z,122
2023-04-15T05:25:48.025Z,122
2023-04-15T05:26:48.029Z,122
2023-04-15T05:27:48.029Z,122
2023-04-15T05:28:48.038Z,122
2023-04-15T05:29:48.032Z,113
2023-04-15T05:30:48.035Z,113
2023-04-15T05:31:48.031Z,113
2023-04-15T05:32:48.064Z,113
2023-04-15T05:33:48.038Z,113
2023-04-15T05:34:48.036Z,143
2023-04-15T05:35:48.038Z,143
2023-04-15T05:36:48.037Z,143
2023-04-15T05:37:48.042Z,143
2023-04-15T05:38:48.044Z,143
2023-04-15T05:39:48.042Z,176
2023-04-15T05:40:48.065Z,176
2023-04-15T05:41:48.047Z,176
2023-04-15T05:42:48.041Z,176
2023-04-15T05:43:48.068Z,176
2023-04-15T05:44:48.045Z,216
2023-04-15T05:45:48.074Z,216
2023-04-15T05:46:48.055Z,216
2023-04-15T05:47:48.067Z,216
2023-04-15T05:48:48.051Z,216
2023-04-15T05:49:48.048Z,180
2023-04-15T05:50:48.053Z,180
2023-04-15T05:51:48.064Z,180
2023-04-15T05:52:48.062Z,180
2023-04-15T05:53:48.050Z,180
2023-04-15T05:54:48.054Z,157
2023-04-15T05:55:48.053Z,157
2023-04-15T05:56:48.083Z,157
2023-04-15T05:57:48.056Z,157
2023-04-15T05:58:48.052Z,157
2023-04-15T05:59:48.054Z,158
2023-04-15T06:00:48.056Z,158
2023-04-15T06:01:48.154Z,158
2023-04-15T06:02:48.131Z,158
2023-04-15T06:03:48.193Z,158
2023-04-15T06:04:48.133Z,215
2023-04-15T06:05:48.057Z,215
2023-04-15T06:06:48.058Z,215
2023-04-15T06:07:48.641Z,215
2023-04-15T06:08:48.060Z,215
2023-04-15T06:09:48.059Z,205
2023-04-15T06:10:48.062Z,205
2023-04-15T06:11:48.062Z,205
2023-04-15T06:12:48.090Z,205
2023-04-15T06:13:48.060Z,205
2023-04-15T06:14:48.081Z,253
2023-04-15T06:15:48.083Z,253
2023-04-15T06:16:48.067Z,253
2023-04-15T06:17:48.085Z,253
2023-04-15T06:18:48.074Z,253
2023-04-15T06:19:48.069Z,313
2023-04-15T06:20:48.068Z,313
2023-04-15T06:21:48.068Z,313
2023-04-15T06:22:48.072Z,313
2023-04-15T06:23:48.069Z,313
2023-04-15T06:24:48.071Z,328
2023-04-15T06:25:48.070Z,328
2023-04-15T06:26:48.075Z,328
2023-04-15T06:27:48.076Z,328
2023-04-15T06:28:48.104Z,328
2023-04-15T06:29:48.074Z,374
2023-04-15T06:30:48.076Z,374
2023-04-15T06:31:48.109Z,374
2023-04-15T06:32:48.092Z,374
2023-04-15T06:33:48.073Z,374
2023-04-15T06:34:48.077Z,391
2023-04-15T06:35:48.080Z,391
2023-04-15T06:36:48.074Z,391
2023-04-15T06:37:48.072Z,391
2023-04-15T06:38:48.074Z,391
2023-04-15T06:39:48.076Z,346
2023-04-15T06:40:48.090Z,346
2023-04-15T06:41:48.074Z,346
2023-04-15T06:42:48.071Z,346
2023-04-15T06:43:48.078Z,346
2023-04-15T06:44:48.102Z,405
2023-04-15T06:45:48.096Z,405
2023-04-15T06:46:48.077Z,405
2023-04-15T06:47:48.105Z,405
2023-04-15T06:48:48.075Z,405
2023-04-15T06:49:48.082Z,405
2023-04-15T06:50:48.075Z,398
2023-04-15T06:51:48.078Z,398
2023-04-15T06:52:48.075Z,398
2023-04-15T06:53:48.071Z,398
2023-04-15T06:54:48.075Z,398
2023-04-15T06:55:48.078Z,357
2023-04-15T06:56:48.080Z,357
2023-04-15T06:57:48.092Z,357
2023-04-15T06:58:48.081Z,357
2023-04-15T06:59:48.081Z,357
2023-04-15T07:00:48.129Z,331
2023-04-15T07:01:48.098Z,331
2023-04-15T07:02:48.165Z,331
2023-04-15T07:03:48.098Z,331
2023-04-15T07:04:48.092Z,331
2023-04-15T07:05:48.091Z,293
2023-04-15T07:06:48.103Z,293
2023-04-15T07:07:48.095Z,293
2023-04-15T07:08:48.099Z,293
2023-04-15T07:09:48.092Z,293
2023-04-15T07:10:48.094Z,367
2023-04-15T07:11:48.096Z,367
2023-04-15T07:12:48.097Z,367
2023-04-15T07:13:48.100Z,367
2023-04-15T07:14:48.098Z,367
2023-04-15T07:15:48.093Z,545
2023-04-15T07:16:48.166Z,545
2023-04-15T07:17:48.128Z,545
2023-04-15T07:18:48.101Z,545
2023-04-15T07:19:48.103Z,545
2023-04-15T07:20:48.111Z,613
2023-04-15T07:21:48.106Z,613
2023-04-15T07:22:48.117Z,613
2023-04-15T07:23:48.108Z,613
2023-04-15T07:24:48.107Z,613
2023-04-15T07:25:48.109Z,717
2023-04-15T07:26:48.108Z,717
2023-04-15T07:27:48.115Z,717
2023-04-15T07:28:48.139Z,717
2023-04-15T07:29:48.117Z,717
2023-04-15T07:30:48.169Z,699
2023-04-15T07:31:48.119Z,699
2023-04-15T07:32:48.266Z,699
2023-04-15T07:33:48.127Z,699
2023-04-15T07:34:48.120Z,699
2023-04-15T07:35:48.120Z,686
2023-04-15T07:36:48.119Z,686
2023-04-15T07:37:48.119Z,686
2023-04-15T07:38:48.118Z,686
2023-04-15T07:39:48.122Z,686
2023-04-15T07:40:48.123Z,676
2023-04-15T07:41:48.123Z,676
2023-04-15T07:42:48.135Z,676
2023-04-15T07:43:48.121Z,676
2023-04-15T07:44:48.130Z,676
2023-04-15T07:45:48.143Z,754
2023-04-15T07:46:48.129Z,754
2023-04-15T07:47:48.191Z,754
2023-04-15T07:48:48.152Z,754
2023-04-15T07:49:48.130Z,754
2023-04-15T07:50:48.136Z,715
2023-04-15T07:51:48.132Z,715
2023-04-15T07:52:48.139Z,715
2023-04-15T07:53:48.138Z,715
2023-04-15T07:54:48.145Z,715
2023-04-15T07:55:48.142Z,827
2023-04-15T07:56:48.135Z,827
2023-04-15T07:57:48.140Z,827
2023-04-15T07:58:48.134Z,827
2023-04-15T07:59:48.140Z,827
2023-04-15T08:00:48.139Z,1097
2023-04-15T08:01:48.143Z,1097
2023-04-15T08:02:48.273Z,1097
2023-04-15T08:03:48.208Z,1097
2023-04-15T08:04:48.228Z,1097
2023-04-15T08:05:48.143Z,1188
2023-04-15T08:06:48.141Z,1188
2023-04-15T08:07:48.151Z,1188
2023-04-15T08:08:48.150Z,1188
2023-04-15T08:09:48.143Z,1188
2023-04-15T08:10:48.629Z,1113
2023-04-15T08:11:48.146Z,1113
2023-04-15T08:12:48.150Z,1113
2023-04-15T08:13:48.147Z,1113
2023-04-15T08:14:48.155Z,1113
2023-04-15T08:15:48.165Z,1356
2023-04-15T08:16:48.145Z,1356
2023-04-15T08:17:48.178Z,1356
2023-04-15T08:18:48.157Z,1356
2023-04-15T08:19:48.149Z,1356
2023-04-15T08:20:48.176Z,1505
2023-04-15T08:21:48.150Z,1505
2023-04-15T08:22:48.149Z,1505
2023-04-15T08:23:48.147Z,1505
2023-04-15T08:24:48.173Z,1505
2023-04-15T08:25:48.153Z,1392
2023-04-15T08:26:48.150Z,1392
2023-04-15T08:27:48.160Z,1392
2023-04-15T08:28:48.157Z,1392
2023-04-15T08:29:48.153Z,1392
2023-04-15T08:30:48.159Z,1274
2023-04-15T08:31:48.182Z,1274
2023-04-15T08:32:48.225Z,1274
2023-04-15T08:33:48.154Z,1274
2023-04-15T08:34:48.155Z,1274
2023-04-15T08:35:48.166Z,984
2023-04-15T08:36:48.186Z,984
2023-04-15T08:37:48.160Z,984
2023-04-15T08:38:48.161Z,984
2023-04-15T08:39:48.161Z,984
2023-04-15T08:40:48.166Z,1019
2023-04-15T08:41:48.160Z,1019
2023-04-15T08:42:48.165Z,1019
2023-04-15T08:43:48.161Z,1019
2023-04-15T08:44:48.160Z,1019
2023-04-15T08:45:48.162Z,1120
2023-04-15T08:46:48.167Z,1120
2023-04-15T08:47:48.168Z,1120
2023-04-15T08:48:48.177Z,1120
2023-04-15T08:49:48.165Z,1120
2023-04-15T08:50:48.168Z,1129
2023-04-15T08:51:48.163Z,1129
2023-04-15T08:52:48.195Z,1129
2023-04-15T08:53:48.186Z,1129
2023-04-15T08:54:48.171Z,1129
2023-04-15T08:55:48.169Z,1011
2023-04-15T08:56:48.200Z,1011
2023-04-15T08:57:48.174Z,1011
2023-04-15T08:58:48.169Z,1011
2023-04-15T08:59:48.169Z,1011
2023-04-15T09:00:48.183Z,966
2023-04-15T09:01:48.177Z,966
2023-04-15T09:02:48.274Z,966
2023-04-15T09:03:48.246Z,966
2023-04-15T09:04:48.181Z,966
2023-04-15T09:05:48.177Z,940
2023-04-15T09:06:48.171Z,940
2023-04-15T09:07:48.247Z,940
2023-04-15T09:08:48.204Z,940
2023-04-15T09:09:48.176Z,940
2023-04-15T09:10:48.177Z,1017
2023-04-15T09:11:48.175Z,1017
2023-04-15T09:12:48.173Z,1017
2023-04-15T09:13:48.176Z,1017
2023-04-15T09:14:48.184Z,1017
2023-04-15T09:15:48.177Z,785
2023-04-15T09:16:50.343Z,785
2023-04-15T09:17:48.237Z,785
2023-04-15T09:18:48.172Z,785
2023-04-15T09:19:48.176Z,785
2023-04-15T09:20:48.183Z,987
2023-04-15T09:21:48.171Z,987
2023-04-15T09:22:48.181Z,987
2023-04-15T09:23:48.177Z,987
2023-04-15T09:24:48.195Z,987
2023-04-15T09:25:48.175Z,1242
2023-04-15T09:26:48.172Z,1242
2023-04-15T09:27:48.176Z,1242
2023-04-15T09:28:48.181Z,1242
2023-04-15T09:29:48.176Z,1242
2023-04-15T09:30:49.864Z,1485
2023-04-15T09:31:48.174Z,1485
2023-04-15T09:32:48.253Z,1485
2023-04-15T09:33:48.172Z,1485
2023-04-15T09:34:48.176Z,1485
2023-04-15T09:35:48.179Z,1610
2023-04-15T09:36:50.488Z,1610
2023-04-15T09:37:48.180Z,1610
2023-04-15T09:38:48.175Z,1610
2023-04-15T09:39:48.190Z,1610
2023-04-15T09:40:48.202Z,1857
2023-04-15T09:41:48.175Z,1857
2023-04-15T09:42:49.859Z,1857
2023-04-15T09:43:48.176Z,2238
2023-04-15T09:44:48.174Z,2303
2023-04-15T09:45:48.213Z,2305
2023-04-15T09:46:48.177Z,2305
2023-04-15T09:47:48.212Z,2305
2023-04-15T09:48:48.176Z,2305
2023-04-15T09:49:48.248Z,1826
2023-04-15T09:50:48.179Z,1807
2023-04-15T09:51:57.877Z,1807
2023-04-15T09:52:48.180Z,1807
2023-04-15T09:53:48.176Z,1807
2023-04-15T09:54:48.177Z,1807
2023-04-15T09:55:48.173Z,1866
2023-04-15T09:56:48.209Z,1752
2023-04-15T09:57:48.177Z,1752
2023-04-15T09:58:48.178Z,1752
2023-04-15T09:59:48.176Z,1752
2023-04-15T10:00:48.187Z,1752
2023-04-15T10:01:48.254Z,1521
2023-04-15T10:02:48.235Z,1521
2023-04-15T10:03:48.322Z,1521
2023-04-15T10:04:48.184Z,1521
2023-04-15T10:05:48.192Z,1521
2023-04-15T10:06:48.188Z,1434
2023-04-15T10:07:48.189Z,1434
2023-04-15T10:08:48.184Z,1301
2023-04-15T10:09:48.198Z,1269
2023-04-15T10:10:48.201Z,1269
2023-04-15T10:11:48.191Z,1269
2023-04-15T10:12:48.219Z,1269
2023-04-15T10:13:48.196Z,1269
2023-04-15T10:14:48.196Z,1040
2023-04-15T10:15:48.250Z,1040
2023-04-15T10:16:48.198Z,1040
2023-04-15T10:17:48.211Z,1040
2023-04-15T10:18:48.204Z,1040
2023-04-15T10:19:48.202Z,906
2023-04-15T10:20:48.203Z,906
2023-04-15T10:21:48.203Z,906
2023-04-15T10:22:48.204Z,906
2023-04-15T10:23:48.206Z,906
2023-04-15T10:24:48.206Z,1084
2023-04-15T10:25:48.205Z,1084
2023-04-15T10:26:48.202Z,1084
2023-04-15T10:27:48.212Z,1084
2023-04-15T10:28:48.236Z,1084
2023-04-15T10:29:48.231Z,1222
2023-04-15T10:30:48.207Z,1222
2023-04-15T10:31:48.286Z,1222
2023-04-15T10:32:48.241Z,1222
2023-04-15T10:33:48.218Z,1222
2023-04-15T10:34:48.221Z,1238
2023-04-15T10:35:48.215Z,1238
2023-04-15T10:36:48.212Z,1238
2023-04-15T10:37:48.218Z,1238
2023-04-15T10:38:48.215Z,1238
2023-04-15T10:39:48.216Z,1229
2023-04-15T10:40:48.215Z,1229
2023-04-15T10:41:48.216Z,1229
2023-04-15T10:42:48.221Z,1202
2023-04-15T10:43:48.223Z,1202
2023-04-15T10:44:48.245Z,1202
2023-04-15T10:45:48.224Z,1202
2023-04-15T10:46:48.236Z,1202
2023-04-15T10:47:48.301Z,1380
2023-04-15T10:48:48.232Z,1380
2023-04-15T10:49:48.224Z,1380
2023-04-15T10:50:48.225Z,1380
2023-04-15T10:51:48.227Z,1380
2023-04-15T10:52:48.224Z,1789
2023-04-15T10:53:48.231Z,1789
2023-04-15T10:54:48.225Z,1789
2023-04-15T10:55:48.224Z,1789
2023-04-15T10:56:48.235Z,1789
2023-04-15T10:57:48.230Z,2197
2023-04-15T10:58:48.234Z,2197
2023-04-15T10:59:48.228Z,2328
2023-04-15T11:00:48.257Z,2417
2023-04-15T11:01:48.280Z,2483
2023-04-15T11:02:48.342Z,2536
2023-04-15T11:03:48.370Z,2512
2023-04-15T11:05:48.232Z,2580
2023-04-15T11:06:48.228Z,2635
2023-04-15T11:07:48.231Z,2699
2023-04-15T11:08:48.304Z,2671
2023-04-15T11:09:48.232Z,2643
2023-04-15T11:10:48.227Z,2621
2023-04-15T11:11:48.235Z,2533
2023-04-15T11:12:48.231Z,2466
2023-04-15T11:13:48.235Z,2366
2023-04-15T11:14:48.239Z,2326
2023-04-15T11:15:48.238Z,2222
2023-04-15T11:16:48.270Z,2161
2023-04-15T11:17:48.253Z,2127
2023-04-15T11:18:48.230Z,2122
2023-04-15T11:19:48.229Z,2025
2023-04-15T11:20:48.234Z,1997
2023-04-15T11:21:48.228Z,1951
2023-04-15T11:22:48.231Z,1936
2023-04-15T11:23:48.233Z,1942
2023-04-15T11:24:48.239Z,1958
2023-04-15T11:25:48.234Z,1952
2023-04-15T11:26:48.234Z,1934
2023-04-15T11:27:48.234Z,1934
2023-04-15T11:28:48.251Z,1903
2023-04-15T11:29:48.237Z,1907
2023-04-15T11:30:48.239Z,1846
2023-04-15T11:31:48.269Z,1835
2023-04-15T11:32:48.273Z,1779
2023-04-15T11:33:48.245Z,1779
2023-04-15T11:34:48.232Z,1779
2023-04-15T11:35:48.240Z,1779
2023-04-15T11:36:48.238Z,1779
2023-04-15T11:37:48.245Z,1618
2023-04-15T11:38:48.246Z,1469
2023-04-15T11:39:48.253Z,1456
2023-04-15T11:40:48.251Z,1456
2023-04-15T11:41:48.248Z,1456
2023-04-15T11:42:50.086Z,1456
2023-04-15T11:43:48.251Z,1456
2023-04-15T11:44:48.264Z,1236
2023-04-15T11:45:48.300Z,1236
2023-04-15T11:46:48.254Z,1236
2023-04-15T11:47:48.275Z,1236
2023-04-15T11:48:48.283Z,1236
2023-04-15T11:49:48.250Z,1098
2023-04-15T11:50:48.255Z,1098
2023-04-15T11:51:48.259Z,1098
2023-04-15T11:52:48.261Z,1098
2023-04-15T11:53:48.260Z,1098
2023-04-15T11:54:48.259Z,1150
2023-04-15T11:55:48.260Z,1150
2023-04-15T11:56:48.265Z,1150
2023-04-15T11:57:48.263Z,1150
2023-04-15T11:58:48.260Z,1150
2023-04-15T11:59:48.262Z,1158
2023-04-15T12:00:48.275Z,1158
2023-04-15T12:01:48.285Z,1158
2023-04-15T12:02:48.366Z,1158
2023-04-15T12:03:48.392Z,1158
2023-04-15T12:04:48.338Z,1073
2023-04-15T12:05:48.265Z,1073
2023-04-15T12:06:48.267Z,1073
2023-04-15T12:07:48.270Z,1073
2023-04-15T12:08:48.270Z,1073
2023-04-15T12:09:48.270Z,1127
2023-04-15T12:10:48.267Z,1127
2023-04-15T12:11:48.271Z,1127
2023-04-15T12:12:48.275Z,1127
2023-04-15T12:13:48.278Z,1127
2023-04-15T12:14:48.277Z,1325
2023-04-15T12:15:48.297Z,1325
2023-04-15T12:16:49.903Z,1325
2023-04-15T12:17:51.219Z,1325
2023-04-15T12:18:48.307Z,1325
2023-04-15T12:19:48.278Z,1223
2023-04-15T12:20:48.307Z,1223
2023-04-15T12:21:48.288Z,1223
2023-04-15T12:22:48.282Z,1223
2023-04-15T12:23:48.283Z,1223
2023-04-15T12:24:48.287Z,1436
2023-04-15T12:25:48.292Z,1436
2023-04-15T12:26:48.289Z,1436
2023-04-15T12:27:48.291Z,1436
2023-04-15T12:28:48.295Z,1436
2023-04-15T12:29:48.291Z,1318
2023-04-15T12:30:48.296Z,1318
2023-04-15T12:31:48.299Z,1318
2023-04-15T12:32:48.304Z,1509
2023-04-15T12:33:48.295Z,1507
2023-04-15T12:34:48.304Z,1507
2023-04-15T12:35:48.304Z,1507
2023-04-15T12:36:48.325Z,1507
2023-04-15T12:37:48.300Z,1206
2023-04-15T12:38:48.312Z,1206
2023-04-15T12:39:48.305Z,1206
2023-04-15T12:40:48.308Z,1206
2023-04-15T12:41:48.306Z,1206
2023-04-15T12:42:48.306Z,1234
2023-04-15T12:43:48.306Z,1234
2023-04-15T12:44:48.317Z,1234
2023-04-15T12:45:48.311Z,1234
2023-04-15T12:46:48.339Z,1234
2023-04-15T12:47:48.319Z,1468
2023-04-15T12:48:48.311Z,1468
2023-04-15T12:49:48.311Z,1468
2023-04-15T12:50:48.316Z,1468
2023-04-15T12:51:48.316Z,1468
2023-04-15T12:52:48.345Z,1422
2023-04-15T12:53:48.314Z,1422
2023-04-15T12:54:48.316Z,1422
2023-04-15T12:55:48.320Z,1422
2023-04-15T12:56:48.318Z,1422
2023-04-15T12:57:48.320Z,1534
2023-04-15T12:58:48.321Z,1534
2023-04-15T12:59:48.315Z,1534
2023-04-15T13:00:48.319Z,1534
2023-04-15T13:01:48.388Z,1534
2023-04-15T13:02:48.516Z,1453
2023-04-15T13:03:48.380Z,1453
2023-04-15T13:04:48.351Z,1453
2023-04-15T13:05:48.325Z,1453
2023-04-15T13:06:48.328Z,1453
2023-04-15T13:07:48.328Z,1289
2023-04-15T13:08:57.762Z,1289
2023-04-15T13:09:48.334Z,1289
2023-04-15T13:10:48.332Z,1289
2023-04-15T13:11:48.331Z,1289
2023-04-15T13:12:48.334Z,1377
2023-04-15T13:13:48.339Z,1377
2023-04-15T13:14:48.338Z,1377
2023-04-15T13:15:48.351Z,1377
2023-04-15T13:16:48.335Z,1377
2023-04-15T13:17:48.373Z,1276
2023-04-15T13:18:48.341Z,1276
2023-04-15T13:19:48.341Z,1276
2023-04-15T13:20:48.342Z,1276
2023-04-15T13:21:48.346Z,1276
2023-04-15T13:22:48.348Z,1350
2023-04-15T13:23:48.343Z,1350
2023-04-15T13:24:48.386Z,1350
2023-04-15T13:25:48.347Z,1350
2023-04-15T13:26:50.186Z,1350
2023-04-15T13:27:48.349Z,1324
2023-04-15T13:28:48.342Z,1324
2023-04-15T13:29:48.349Z,1324
2023-04-15T13:30:48.350Z,1324
2023-04-15T13:31:48.367Z,1324
2023-04-15T13:32:50.445Z,1216
2023-04-15T13:33:48.364Z,1216
2023-04-15T13:34:48.353Z,1216
2023-04-15T13:35:48.353Z,1216
2023-04-15T13:36:48.358Z,1216
2023-04-15T13:37:48.354Z,1054
2023-04-15T13:38:49.799Z,1054
2023-04-15T13:39:48.355Z,1054
2023-04-15T13:40:48.377Z,1054
2023-04-15T13:41:48.361Z,1054
2023-04-15T13:42:48.362Z,1054
2023-04-15T13:43:48.365Z,952
2023-04-15T13:44:48.363Z,952
2023-04-15T13:45:48.404Z,952
2023-04-15T13:46:48.370Z,952
2023-04-15T13:47:48.422Z,952
2023-04-15T13:48:48.381Z,857
2023-04-15T13:49:48.375Z,857
2023-04-15T13:50:48.373Z,857
2023-04-15T13:51:48.373Z,857
2023-04-15T13:52:48.370Z,857
2023-04-15T13:53:48.375Z,755
2023-04-15T13:54:48.375Z,755
2023-04-15T13:55:48.373Z,755
2023-04-15T13:56:48.399Z,755